Time;durP1;ratioP1;P1;durP2;ratioP2;P2;SDS_P1;SDS_P2;PMS_P1;PMS_P2;Temp;Humidity;BMP_temperature;BMP_pressure;BME280_temperature;BME280_humidity;BME280_pressure;Samples;Min_cycle;Max_cycle;Signal;HPM_P1;HPM_P2
2024/01/12 00:02:12;;;;;;;115.17;52.05;;;;;;;-2.78;100.00;100911.55;1468178;88;21449;-74
2024/01/12 00:04:39;;;;;;;116.37;54.27;;;;;;;-2.79;100.00;100916.34;1465332;88;21486;-76
2024/01/12 00:07:06;;;;;;;121.50;53.05;;;;;;;-2.79;100.00;100915.05;1469353;88;21530;-78
2024/01/12 00:09:33;;;;;;;118.75;52.20;;;;;;;-2.80;100.00;100902.97;1455570;89;21935;-77
2024/01/12 00:12:00;;;;;;;124.75;56.13;;;;;;;-2.76;100.00;100911.52;1482263;88;21530;-77
2024/01/12 00:14:27;;;;;;;118.13;55.90;;;;;;;-2.75;100.00;100907.56;1469376;88;21368;-77
2024/01/12 00:16:55;;;;;;;131.75;60.85;;;;;;;-2.75;100.00;100911.45;1479242;88;21533;-77
2024/01/12 00:19:22;;;;;;;118.70;54.75;;;;;;;-2.76;100.00;100909.77;1454692;89;21516;-77
2024/01/12 00:21:49;;;;;;;122.47;54.40;;;;;;;-2.77;100.00;100909.34;1468217;88;21471;-77
2024/01/12 00:24:16;;;;;;;117.60;54.60;;;;;;;-2.76;100.00;100904.58;1471440;88;21538;-77
2024/01/12 00:26:44;;;;;;;124.58;56.13;;;;;;;-2.78;100.00;100911.55;1469938;88;21516;-76
2024/01/12 00:29:11;;;;;;;120.28;53.75;;;;;;;-2.82;100.00;100917.74;1478128;88;22625;-76
2024/01/12 00:31:38;;;;;;;128.72;57.35;;;;;;;-2.92;100.00;100929.29;1465948;89;21427;-77
2024/01/12 00:34:05;;;;;;;122.13;55.43;;;;;;;-2.92;100.00;100921.52;1474875;88;22358;-77
2024/01/12 00:36:32;;;;;;;134.85;60.98;;;;;;;-2.87;100.00;100918.79;1470828;88;21435;-77
2024/01/12 00:39:00;;;;;;;122.60;58.58;;;;;;;-2.89;100.00;100913.64;1471715;88;21456;-76
2024/01/12 00:41:28;;;;;;;119.33;52.85;;;;;;;-2.89;100.00;100918.83;1481506;88;21861;-78
2024/01/12 00:43:55;;;;;;;113.60;53.15;;;;;;;-2.85;100.00;100917.84;1467795;88;21360;-77
2024/01/12 00:46:23;;;;;;;107.47;50.90;;;;;;;-2.87;100.00;100919.63;1469451;88;22314;-77
2024/01/12 00:48:50;;;;;;;111.90;52.67;;;;;;;-2.88;100.00;100919.21;1469230;88;21363;-77
2024/01/12 00:51:17;;;;;;;117.10;55.28;;;;;;;-2.85;100.00;100923.03;1455083;89;21891;-77
2024/01/12 00:53:45;;;;;;;105.15;48.70;;;;;;;-2.83;100.00;100913.44;1461388;88;21911;-76
2024/01/12 00:56:12;;;;;;;123.10;54.88;;;;;;;-2.82;100.00;100922.92;1476608;88;22425;-76
2024/01/12 00:58:39;;;;;;;116.82;53.30;;;;;;;-2.77;100.00;100920.16;1469386;88;21405;-75
2024/01/12 01:01:07;;;;;;;116.00;53.30;;;;;;;-2.70;100.00;100918.20;1457813;89;21552;-75
2024/01/12 01:03:38;;;;;;;112.40;51.75;;;;;;;-2.68;100.00;100924.19;1463145;88;21901;-75
2024/01/12 01:06:05;;;;;;;98.17;48.38;;;;;;;-2.68;100.00;100921.60;1465649;88;21624;-75
2024/01/12 01:08:33;;;;;;;109.10;48.38;;;;;;;-2.68;100.00;100934.56;1474499;88;21464;-75
2024/01/12 01:11:00;;;;;;;110.60;50.08;;;;;;;-2.68;100.00;100936.70;1472974;89;22342;-76
2024/01/12 01:13:27;;;;;;;103.58;49.13;;;;;;;-2.66;100.00;100935.36;1469887;88;21331;-75
2024/01/12 01:15:55;;;;;;;105.70;47.83;;;;;;;-2.62;100.00;100930.46;1465851;88;21397;-75
2024/01/12 01:18:22;;;;;;;104.12;44.93;;;;;;;-2.67;100.00;100926.75;1474105;88;21390;-75
2024/01/12 01:20:49;;;;;;;95.00;44.00;;;;;;;-2.65;100.00;100926.68;1463621;88;21426;-75
2024/01/12 01:23:17;;;;;;;106.55;51.02;;;;;;;-2.70;100.00;100924.69;1473977;88;21383;-75
2024/01/12 01:25:44;;;;;;;113.50;54.10;;;;;;;-2.75;100.00;100928.74;1463615;88;21508;-75
2024/01/12 01:28:12;;;;;;;116.47;52.05;;;;;;;-2.79;100.00;100929.30;1471352;88;21331;-75
2024/01/12 01:30:39;;;;;;;104.78;49.27;;;;;;;-2.79;100.00;100930.59;1460124;88;21434;-75
2024/01/12 01:33:06;;;;;;;106.15;49.80;;;;;;;-2.82;100.00;100928.11;1475434;88;21382;-75
2024/01/12 01:35:34;;;;;;;107.07;50.67;;;;;;;-2.86;100.00;100925.20;1476344;88;21345;-75
2024/01/12 01:38:01;;;;;;;106.60;48.50;;;;;;;-2.87;100.00;100929.16;1464031;88;21389;-75
2024/01/12 01:40:28;;;;;;;106.20;49.23;;;;;;;-2.90;100.00;100930.09;1468428;88;22514;-75
2024/01/12 01:42:56;;;;;;;104.38;48.40;;;;;;;-2.92;100.00;100925.41;1452070;89;21383;-75
2024/01/12 01:45:23;;;;;;;108.17;50.03;;;;;;;-2.94;100.00;100928.48;1472192;88;21383;-75
2024/01/12 01:47:51;;;;;;;107.35;51.08;;;;;;;-2.97;100.00;100934.60;1474771;88;21390;-75
2024/01/12 01:50:18;;;;;;;117.57;51.30;;;;;;;-2.98;100.00;100932.92;1469880;88;21368;-75
2024/01/12 01:52:46;;;;;;;122.85;52.48;;;;;;;-2.99;100.00;100930.40;1467040;88;21404;-75
2024/01/12 01:55:15;;;;;;;109.67;47.08;;;;;;;-2.99;100.00;100923.92;1476537;88;21390;-75
2024/01/12 01:57:42;;;;;;;115.40;50.40;;;;;;;-3.03;100.00;100931.38;1457998;89;21442;-75
2024/01/12 02:00:11;;;;;;;116.93;51.98;;;;;;;-3.08;100.00;100933.25;1470178;89;21360;-75
2024/01/12 02:02:40;;;;;;;124.72;54.18;;;;;;;-3.11;100.00;100934.20;1474037;88;21809;-75
2024/01/12 02:05:08;;;;;;;121.35;48.02;;;;;;;-3.14;100.00;100930.86;1450665;89;21530;-75
2024/01/12 02:07:39;;;;;;;119.72;48.98;;;;;;;-3.22;100.00;100933.26;1462792;88;21501;-76
2024/01/12 02:10:09;;;;;;;114.60;51.88;;;;;;;-3.25;100.00;100941.13;1474903;88;21412;-76
2024/01/12 02:12:38;;;;;;;113.62;48.50;;;;;;;-3.27;100.00;100945.94;1468259;88;21389;-76
2024/01/12 02:15:10;;;;;;;116.10;49.83;;;;;;;-3.28;100.00;100948.11;1475010;88;22315;-75
2024/01/12 02:17:37;;;;;;;124.42;55.03;;;;;;;-3.32;100.00;100947.37;1473700;88;21516;-75
2024/01/12 02:20:06;;;;;;;109.52;51.13;;;;;;;-3.28;100.00;100952.88;1472858;88;21508;-75
2024/01/12 02:22:33;;;;;;;109.60;49.93;;;;;;;-3.26;100.00;100958.83;1473497;88;22314;-74
2024/01/12 02:25:01;;;;;;;115.88;52.30;;;;;;;-3.26;100.00;100959.27;1474926;88;21375;-74
2024/01/12 02:27:28;;;;;;;126.20;56.77;;;;;;;-3.24;100.00;100962.22;1464370;88;21552;-74
2024/01/12 02:29:57;;;;;;;113.30;52.60;;;;;;;-3.22;100.00;100955.27;1462620;88;21449;-75
2024/01/12 02:32:24;;;;;;;115.67;51.35;;;;;;;-3.19;100.00;100960.34;1471813;88;21627;-75
2024/01/12 02:34:51;;;;;;;115.30;49.18;;;;;;;-3.18;100.00;100958.14;1454154;89;21412;-75
2024/01/12 02:37:18;;;;;;;119.22;54.73;;;;;;;-3.19;100.00;100962.09;1464334;88;21375;-76
2024/01/12 02:39:46;;;;;;;116.70;53.42;;;;;;;-3.26;100.00;100956.23;1462135;88;21456;-75
2024/01/12 02:42:14;;;;;;;117.37;50.38;;;;;;;-3.24;100.00;100949.28;1464127;88;21420;-76
2024/01/12 02:44:41;;;;;;;124.18;54.75;;;;;;;-3.27;100.00;100947.23;1451200;89;22185;-76
2024/01/12 02:47:09;;;;;;;117.55;48.48;;;;;;;-3.27;100.00;100944.20;1463832;88;21486;-77
2024/01/12 02:49:36;;;;;;;120.25;53.05;;;;;;;-3.27;100.00;100946.78;1473680;88;21919;-76
2024/01/12 02:52:04;;;;;;;125.78;53.85;;;;;;;-3.27;100.00;100945.94;1467680;88;21549;-76
2024/01/12 02:54:32;;;;;;;108.63;49.60;;;;;;;-3.29;100.00;100949.02;1465150;88;21463;-77
2024/01/12 02:56:59;;;;;;;119.15;54.18;;;;;;;-3.31;100.00;100946.49;1468711;88;21541;-76
2024/01/12 02:59:26;;;;;;;116.05;52.80;;;;;;;-3.36;100.00;100947.07;1470041;88;21427;-76
2024/01/12 03:01:53;;;;;;;111.68;48.17;;;;;;;-3.37;100.00;100941.47;1448837;89;22491;-77
2024/01/12 03:04:21;;;;;;;112.25;50.73;;;;;;;-3.38;100.00;100944.12;1473979;88;21368;-76
2024/01/12 03:09:22;;;;;;;121.92;53.23;;;;;;;-3.37;100.00;100933.70;1495792;85;25677;-77
2024/01/12 03:11:49;;;;;;;123.50;52.58;;;;;;;-3.40;100.00;100932.52;1478305;87;22211;-76
2024/01/12 03:14:15;;;;;;;118.47;54.42;;;;;;;-3.40;100.00;100933.35;1468761;88;21493;-76
2024/01/12 03:16:41;;;;;;;125.95;55.30;;;;;;;-3.37;100.00;100930.28;1477318;87;21522;-76
2024/01/12 03:19:07;;;;;;;120.42;54.03;;;;;;;-3.36;100.00;100927.66;1455592;88;21324;-76
2024/01/12 03:21:33;;;;;;;112.60;51.95;;;;;;;-3.34;100.00;100934.06;1447658;89;22575;-76
2024/01/12 03:23:59;;;;;;;133.07;58.02;;;;;;;-3.36;100.00;100931.55;1470213;88;21949;-76
2024/01/12 03:26:25;;;;;;;109.22;51.05;;;;;;;-3.33;100.00;100940.95;1481478;87;21382;-76
2024/01/12 03:28:51;;;;;;;112.28;50.63;;;;;;;-3.33;100.00;100931.45;1454320;89;21632;-76
2024/01/12 03:31:20;;;;;;;109.57;51.63;;;;;;;-3.33;100.00;100943.09;1452859;89;21507;-76
2024/01/12 03:33:46;;;;;;;111.90;52.48;;;;;;;-3.33;100.00;100942.25;1460858;88;21426;-76
2024/01/12 03:36:13;;;;;;;115.45;54.10;;;;;;;-3.30;100.00;100941.70;1459303;89;21463;-76
2024/01/12 03:38:39;;;;;;;115.80;54.08;;;;;;;-3.30;100.00;100935.69;1452580;89;21449;-76
2024/01/12 03:41:06;;;;;;;123.25;55.55;;;;;;;-3.31;100.00;100941.31;1464464;88;22461;-76
2024/01/12 03:43:32;;;;;;;111.37;49.80;;;;;;;-3.32;100.00;100940.89;1459817;89;21596;-76
2024/01/12 03:45:58;;;;;;;106.40;47.20;;;;;;;-3.33;100.00;100939.21;1468837;89;21419;-76
2024/01/12 03:48:24;;;;;;;110.20;49.80;;;;;;;-3.30;100.00;100935.69;1474695;89;21579;-76
2024/01/12 03:50:51;;;;;;;109.25;48.38;;;;;;;-3.31;100.00;100940.02;1450128;89;22344;-76
2024/01/12 03:53:17;;;;;;;110.28;49.77;;;;;;;-3.29;100.00;100934.78;1462247;89;21626;-75
2024/01/12 03:55:43;;;;;;;108.37;49.77;;;;;;;-3.27;100.00;100941.61;1466778;89;21530;-75
2024/01/12 03:58:09;;;;;;;104.00;45.35;;;;;;;-3.24;100.00;100941.52;1445428;89;21514;-75
2024/01/12 04:00:35;;;;;;;95.55;43.87;;;;;;;-3.24;100.00;100935.04;1464321;89;22513;-75
2024/01/12 04:03:02;;;;;;;107.03;51.83;;;;;;;-3.25;100.00;100937.23;1460138;89;21463;-76
2024/01/12 04:05:28;;;;;;;115.35;52.40;;;;;;;-3.24;100.00;100931.16;1471199;89;21612;-75
2024/01/12 04:07:55;;;;;;;106.58;50.20;;;;;;;-3.26;100.00;100939.41;1465545;89;21545;-75
2024/01/12 04:10:21;;;;;;;119.25;55.20;;;;;;;-3.25;100.00;100951.48;1456537;89;21478;-75
2024/01/12 04:12:49;;;;;;;118.55;54.42;;;;;;;-3.23;100.00;100944.48;1466900;89;21611;-76
2024/01/12 04:15:15;;;;;;;114.55;48.98;;;;;;;-3.20;100.00;100947.44;1459471;88;22328;-75
2024/01/12 04:17:41;;;;;;;124.35;52.58;;;;;;;-3.19;100.00;100945.27;1460472;89;22579;-75
2024/01/12 04:20:09;;;;;;;108.50;50.65;;;;;;;-3.18;100.00;100940.48;1468719;88;21478;-75
2024/01/12 04:22:36;;;;;;;123.35;59.88;;;;;;;-3.18;100.00;100938.73;1467543;89;21611;-75
2024/01/12 04:25:02;;;;;;;109.17;52.95;;;;;;;-3.17;100.00;100943.00;1467577;88;22240;-75
2024/01/12 04:27:29;;;;;;;113.35;51.55;;;;;;;-3.15;100.00;100938.24;1456058;89;21647;-75
2024/01/12 04:29:55;;;;;;;112.00;49.27;;;;;;;-3.12;100.00;100938.98;1470338;89;21470;-76
2024/01/12 04:32:22;;;;;;;109.35;52.03;;;;;;;-3.17;100.00;100941.70;1462537;88;21559;-75
2024/01/12 04:34:48;;;;;;;115.03;56.13;;;;;;;-3.21;100.00;100940.12;1463321;89;21567;-75
2024/01/12 04:37:14;;;;;;;111.97;51.65;;;;;;;-3.17;100.00;100948.17;1453033;88;21463;-75
2024/01/12 04:39:41;;;;;;;120.55;54.85;;;;;;;-3.17;100.00;100950.77;1458902;89;21685;-75
2024/01/12 04:42:08;;;;;;;116.62;51.50;;;;;;;-3.14;100.00;100954.16;1461078;88;21508;-75
2024/01/12 04:44:34;;;;;;;110.17;50.52;;;;;;;-3.11;100.00;100954.06;1457080;88;21650;-76
2024/01/12 04:47:00;;;;;;;105.67;49.98;;;;;;;-3.10;100.00;100953.19;1454934;89;21389;-77
2024/01/12 04:49:26;;;;;;;112.88;52.62;;;;;;;-3.07;100.00;100944.03;1468046;88;22512;-75
2024/01/12 04:51:53;;;;;;;122.25;54.15;;;;;;;-3.05;100.00;100943.52;1464766;88;22335;-76
2024/01/12 04:54:19;;;;;;;112.30;54.27;;;;;;;-3.05;100.00;100949.56;1466490;89;21513;-75
2024/01/12 04:56:46;;;;;;;113.20;53.38;;;;;;;-2.99;100.00;100943.34;1462963;89;21685;-75
2024/01/12 04:59:12;;;;;;;118.70;57.80;;;;;;;-2.93;100.00;100943.14;1467020;88;21648;-75
2024/01/12 05:01:38;;;;;;;109.15;54.63;;;;;;;-2.91;100.00;100944.38;1462930;89;21441;-76
2024/01/12 05:04:04;;;;;;;122.90;55.78;;;;;;;-2.94;100.00;100955.68;1452904;88;21588;-76
2024/01/12 05:06:30;;;;;;;124.42;55.83;;;;;;;-2.96;100.00;100960.08;1466791;88;22217;-76
2024/01/12 05:08:56;;;;;;;113.22;53.45;;;;;;;-3.00;100.00;100962.35;1463657;88;21478;-77
2024/01/12 05:11:25;;;;;;;124.58;59.63;;;;;;;-3.02;100.00;100962.84;1459263;90;21453;-76
2024/01/12 05:13:51;;;;;;;120.37;54.50;;;;;;;-3.08;100.00;100965.20;1453804;89;22337;-76
2024/01/12 05:16:17;;;;;;;126.53;60.08;;;;;;;-3.10;100.00;100971.32;1456658;90;21575;-76
2024/01/12 05:18:43;;;;;;;138.52;63.70;;;;;;;-3.13;100.00;100975.30;1446801;89;21406;-75
2024/01/12 05:21:09;;;;;;;135.97;66.33;;;;;;;-3.17;100.00;100975.36;1452267;90;21590;-75
2024/01/12 05:23:36;;;;;;;128.07;60.63;;;;;;;-3.13;100.00;100974.01;1450293;89;22461;-76
2024/01/12 05:26:03;;;;;;;131.55;64.42;;;;;;;-3.14;100.00;100977.47;1447524;90;21419;-75
2024/01/12 05:28:29;;;;;;;130.82;61.53;;;;;;;-3.17;100.00;100980.55;1454797;89;21471;-75
2024/01/12 05:30:56;;;;;;;131.40;58.60;;;;;;;-3.15;100.00;100988.73;1448038;90;21442;-76
2024/01/12 05:33:22;;;;;;;128.95;59.35;;;;;;;-3.14;100.00;100991.70;1453388;89;21635;-76
2024/01/12 05:35:48;;;;;;;119.87;56.95;;;;;;;-3.12;100.00;100998.99;1459080;90;21570;-76
2024/01/12 05:38:14;;;;;;;135.82;63.63;;;;;;;-3.11;100.00;100995.50;1456596;89;21449;-76
2024/01/12 05:40:40;;;;;;;115.12;55.75;;;;;;;-3.10;100.00;101002.39;1460611;90;22542;-76
2024/01/12 05:43:07;;;;;;;140.47;64.80;;;;;;;-3.09;100.00;100998.90;1462919;89;21420;-75
2024/01/12 05:45:33;;;;;;;126.58;57.38;;;;;;;-3.08;100.00;100992.81;1447679;89;21619;-75
2024/01/12 05:47:59;;;;;;;101.45;48.60;;;;;;;-3.06;100.00;100997.51;1454028;89;21500;-75
2024/01/12 05:50:25;;;;;;;89.77;42.90;;;;;;;-3.10;100.00;100994.62;1451704;89;21489;-75
2024/01/12 05:52:51;;;;;;;89.80;39.13;;;;;;;-3.11;100.00;100986.44;1444532;90;21419;-75
2024/01/12 05:55:18;;;;;;;93.80;43.63;;;;;;;-3.11;100.00;100991.16;1452123;89;21419;-75
2024/01/12 05:57:44;;;;;;;85.50;39.35;;;;;;;-3.07;100.00;100991.48;1438624;90;21603;-75
2024/01/12 06:00:12;;;;;;;87.25;42.13;;;;;;;-3.05;100.00;100999.19;1455677;89;21456;-75
2024/01/12 06:02:38;;;;;;;90.87;40.98;;;;;;;-3.01;100.00;100997.77;1443980;90;21472;-75
2024/01/12 06:05:05;;;;;;;88.90;39.88;;;;;;;-2.97;100.00;100998.52;1462390;90;21419;-75
2024/01/12 06:07:34;;;;;;;98.33;45.60;;;;;;;-2.93;100.00;100997.55;1456629;89;21493;-75
2024/01/12 06:10:00;;;;;;;92.02;43.28;;;;;;;-2.88;100.00;101003.40;1443845;89;21649;-76
2024/01/12 06:12:26;;;;;;;86.30;39.73;;;;;;;-2.85;100.00;101016.29;1450920;89;21645;-77
2024/01/12 06:14:53;;;;;;;90.00;41.27;;;;;;;-2.79;100.00;101014.80;1450656;89;21471;-77
2024/01/12 06:17:19;;;;;;;78.40;36.20;;;;;;;-2.76;100.00;101019.87;1454147;89;21703;-77
2024/01/12 06:19:45;;;;;;;89.30;40.28;;;;;;;-2.73;100.00;101023.67;1456675;90;21449;-78
2024/01/12 06:22:13;;;;;;;82.65;37.53;;;;;;;-2.70;100.00;101021.43;1443267;90;21582;-77
2024/01/12 06:24:39;;;;;;;78.95;36.53;;;;;;;-2.66;100.00;101033.83;1463912;90;21650;-77
2024/01/12 06:27:05;;;;;;;71.85;37.05;;;;;;;-2.64;100.00;101035.48;1452150;89;22973;-78
2024/01/12 06:29:31;;;;;;;79.65;37.70;;;;;;;-2.60;100.00;101033.18;1446518;89;21434;-76
2024/01/12 06:31:57;;;;;;;73.75;36.95;;;;;;;-2.56;100.00;101038.69;1440387;90;21553;-76
2024/01/12 06:34:23;;;;;;;77.03;39.20;;;;;;;-2.55;100.00;101040.82;1453211;90;21472;-77
2024/01/12 06:36:49;;;;;;;82.82;38.45;;;;;;;-2.55;100.00;101046.84;1456939;89;23139;-76
2024/01/12 06:39:16;;;;;;;74.37;35.95;;;;;;;-2.53;100.00;101049.41;1453935;89;21391;-77
2024/01/12 06:41:43;;;;;;;70.45;33.20;;;;;;;-2.50;100.00;101041.53;1453477;89;21590;-76
2024/01/12 06:44:09;;;;;;;65.15;31.60;;;;;;;-2.49;100.00;101047.09;1453466;90;21582;-76
2024/01/12 06:46:42;;;;;;;64.35;33.05;;;;;;;-2.49;100.00;101049.69;1454459;90;22470;-76
2024/01/12 06:49:09;;;;;;;64.92;30.02;;;;;;;-2.48;100.00;101050.08;1456709;89;21479;-76
2024/01/12 06:51:36;;;;;;;68.47;31.75;;;;;;;-2.44;100.00;101047.80;1450423;90;22523;-76
2024/01/12 06:54:02;;;;;;;67.00;32.73;;;;;;;-2.38;100.00;101055.38;1450535;90;22484;-76
2024/01/12 06:56:28;;;;;;;58.70;29.52;;;;;;;-2.34;100.00;101056.96;1446339;89;21419;-76
2024/01/12 06:58:55;;;;;;;57.93;29.55;;;;;;;-2.29;100.00;101058.96;1445551;90;21612;-77
2024/01/12 07:01:21;;;;;;;57.75;27.67;;;;;;;-2.27;100.00;101062.36;1453785;89;21456;-76
2024/01/12 07:03:47;;;;;;;60.52;29.75;;;;;;;-2.22;100.00;101067.83;1459176;89;21463;-75
2024/01/12 07:06:13;;;;;;;54.33;28.67;;;;;;;-2.19;100.00;101074.22;1449782;89;21397;-76
2024/01/12 07:08:39;;;;;;;52.20;26.42;;;;;;;-2.15;100.00;101071.94;1460344;89;21485;-76
2024/01/12 07:11:07;;;;;;;54.33;26.42;;;;;;;-2.13;100.00;101072.28;1460039;90;21487;-75
2024/01/12 07:13:34;;;;;;;57.78;28.07;;;;;;;-2.08;100.00;101061.73;1447459;90;22850;-76
2024/01/12 07:16:00;;;;;;;49.75;23.35;;;;;;;-1.99;100.00;101062.72;1451806;90;23178;-76
2024/01/12 07:18:26;;;;;;;57.00;27.45;;;;;;;-1.99;100.00;101064.02;1457216;90;21450;-76
2024/01/12 07:20:52;;;;;;;40.28;21.25;;;;;;;-1.88;100.00;101070.98;1453312;89;21480;-76
2024/01/12 07:23:18;;;;;;;36.33;17.75;;;;;;;-1.84;100.00;101070.45;1460119;90;21604;-76
2024/01/12 07:25:44;;;;;;;36.65;17.75;;;;;;;-1.77;100.00;101078.87;1451341;90;22411;-76
2024/01/12 07:32:11;;;;;;;17.35;7.40;;;;;;;-1.60;100.00;101081.27;1452243;90;21522;-75
2024/01/12 07:34:38;;;;;;;13.85;6.75;;;;;;;-1.40;100.00;101083.15;1457404;90;21435;-79
2024/01/12 07:37:04;;;;;;;12.58;5.55;;;;;;;-1.28;100.00;101088.34;1441144;90;22461;-79
2024/01/12 07:39:30;;;;;;;13.60;6.23;;;;;;;-1.15;100.00;101084.86;1455796;90;21579;-78
2024/01/12 07:41:56;;;;;;;13.70;6.47;;;;;;;-0.98;100.00;101080.31;1447834;90;22226;-79
2024/01/12 07:44:22;;;;;;;11.60;5.73;;;;;;;-0.81;100.00;101078.38;1450121;89;23043;-80
2024/01/12 07:50:47;;;;;;;15.67;7.07;;;;;;;-0.60;100.00;101085.35;1535302;90;21539;-79
2024/01/12 07:53:13;;;;;;;13.60;6.90;;;;;;;-0.48;100.00;101092.66;1362443;91;21714;-79
2024/01/12 07:55:39;;;;;;;16.83;8.60;;;;;;;-0.36;100.00;101093.08;1379419;90;21607;-78
2024/01/12 07:58:06;;;;;;;10.87;6.23;;;;;;;-0.21;100.00;101095.05;1385659;89;21560;-79
2024/01/12 08:00:32;;;;;;;12.57;6.00;;;;;;;-0.18;100.00;101093.63;1535415;90;22381;-79
2024/01/12 08:02:58;;;;;;;12.50;7.33;;;;;;;-0.16;100.00;101100.92;1379750;90;22423;-78
2024/01/12 08:05:25;;;;;;;10.43;6.00;;;;;;;-0.06;100.00;101100.95;1385321;89;21790;-78
2024/01/12 08:07:51;;;;;;;10.97;6.27;;;;;;;0.05;100.00;101106.16;1379230;90;21651;-78
2024/01/12 08:10:18;;;;;;;18.43;7.73;;;;;;;0.16;100.00;101100.05;1390405;89;22743;-78
2024/01/12 08:12:45;;;;;;;12.03;5.17;;;;;;;0.18;100.00;101108.64;1516896;90;22608;-80
2024/01/12 08:15:11;;;;;;;11.50;5.90;;;;;;;0.20;100.00;101103.77;1449616;90;22216;-79
2024/01/12 08:17:38;;;;;;;12.03;5.90;;;;;;;0.32;100.00;101105.00;1441907;90;21777;-79
2024/01/12 08:20:06;;;;;;;12.07;7.13;;;;;;;0.43;100.00;101113.20;1457036;89;21937;-79
2024/01/12 08:22:32;;;;;;;12.40;6.33;;;;;;;0.47;100.00;101106.56;1451485;90;21716;-79
2024/01/12 08:25:00;;;;;;;12.97;6.07;;;;;;;0.38;100.00;101101.29;1453952;89;21631;-79
2024/01/12 08:27:26;;;;;;;13.63;6.37;;;;;;;0.26;100.00;101105.27;1455806;89;21765;-78
2024/01/12 08:29:53;;;;;;;12.57;6.33;;;;;;;0.10;100.00;101113.32;1458842;89;22480;-79
2024/01/12 08:32:19;;;;;;;11.40;5.63;;;;;;;0.10;100.00;101117.23;1446534;90;21694;-79
2024/01/12 08:34:47;;;;;;;9.00;4.40;;;;;;;-0.08;100.00;101121.44;1450418;90;21937;-79
2024/01/12 08:37:13;;;;;;;12.00;6.53;;;;;;;0.02;100.00;101117.99;1454291;89;22621;-79
2024/01/12 08:39:39;;;;;;;10.70;6.67;;;;;;;0.11;100.00;101112.40;1457880;90;21909;-79
2024/01/12 08:42:06;;;;;;;9.97;5.40;;;;;;;0.26;100.00;101120.02;1454533;90;21547;-79
2024/01/12 08:44:32;;;;;;;11.53;6.20;;;;;;;0.27;100.00;101129.08;1444728;89;21702;-79
2024/01/12 08:46:59;;;;;;;9.80;5.40;;;;;;;0.24;100.00;101133.11;1448277;89;21691;-79
2024/01/12 08:49:25;;;;;;;10.37;5.20;;;;;;;0.29;100.00;101142.89;1461007;90;21642;-79
2024/01/12 08:51:51;;;;;;;10.00;4.80;;;;;;;0.19;100.00;101135.06;1450070;89;23318;-79
2024/01/12 08:54:17;;;;;;;16.33;5.53;;;;;;;0.27;100.00;101136.89;1450664;90;22133;-79
2024/01/12 08:56:44;;;;;;;48.97;33.03;;;;;;;0.40;100.00;101136.77;1430556;91;21765;-79
2024/01/12 08:59:10;;;;;;;22.10;17.00;;;;;;;0.33;100.00;101137.09;1481434;87;22719;-79
2024/01/12 09:01:36;;;;;;;9.47;6.73;;;;;;;0.44;100.00;101144.84;1448366;89;21763;-80
2024/01/12 09:04:02;;;;;;;9.00;5.40;;;;;;;0.48;100.00;101140.80;1446273;89;21832;-79
2024/01/12 09:06:29;;;;;;;9.67;5.93;;;;;;;0.45;100.00;101137.40;1453552;89;22221;-79
2024/01/12 09:08:56;;;;;;;8.83;4.03;;;;;;;0.34;100.00;101145.28;1455588;89;21679;-80
2024/01/12 09:11:22;;;;;;;24.03;13.67;;;;;;;0.23;100.00;101147.02;1460113;89;21713;-81
2024/01/12 09:13:49;;;;;;;12.47;6.60;;;;;;;0.38;100.00;101149.01;1465278;88;21713;-77
2024/01/12 09:16:15;;;;;;;10.67;5.77;;;;;;;0.53;100.00;101157.08;1463332;89;21813;-76
2024/01/12 09:18:43;;;;;;;6.80;3.93;;;;;;;0.57;100.00;101163.38;1462319;89;22520;-77
2024/01/12 09:21:15;;;;;;;8.23;3.80;;;;;;;0.45;100.00;101151.72;1460189;89;21696;-78
2024/01/12 09:23:39;;;;;;;7.23;3.70;;;;;;;0.29;100.00;101153.30;1456580;89;22667;-77
2024/01/12 09:26:05;;;;;;;8.50;3.80;;;;;;;0.36;100.00;101153.42;1423794;91;21870;-76
2024/01/12 09:28:31;;;;;;;7.13;3.67;;;;;;;0.29;100.00;101157.21;1427972;91;21656;-77
2024/01/12 09:30:57;;;;;;;6.17;3.70;;;;;;;0.42;100.00;101162.73;1424077;92;21651;-76
2024/01/12 09:33:23;;;;;;;8.37;4.13;;;;;;;0.33;100.00;101175.69;1429571;92;22547;-77
2024/01/12 09:35:49;;;;;;;7.80;3.77;;;;;;;0.21;83.74;101174.91;1428373;91;21694;-77
2024/01/12 09:38:16;;;;;;;8.03;3.73;;;;;;;0.21;77.96;101180.95;1418769;91;21815;-77
2024/01/12 09:40:42;;;;;;;8.17;3.67;;;;;;;0.30;75.55;101177.12;1422601;91;21765;-76
2024/01/12 09:43:13;;;;;;;9.10;4.30;;;;;;;0.35;76.40;101164.77;1424397;92;21862;-76
2024/01/12 09:45:44;;;;;;;8.77;3.60;;;;;;;0.45;71.17;101167.35;1428398;92;21547;-76
2024/01/12 09:48:11;;;;;;;7.17;3.52;;;;;;;0.85;67.81;101172.16;1421839;92;21531;-73
2024/01/12 09:50:39;;;;;;;7.03;3.87;;;;;;;1.49;65.48;101161.88;1430260;92;21487;-75
2024/01/12 09:53:05;;;;;;;9.13;5.33;;;;;;;1.94;57.42;101165.00;1380090;92;22125;-74
2024/01/12 09:55:31;;;;;;;5.83;3.47;;;;;;;2.41;55.44;101165.72;1422111;91;22214;-77
2024/01/12 09:58:00;;;;;;;6.77;3.57;;;;;;;2.43;53.21;101166.48;1423702;92;22484;-76
2024/01/12 10:00:28;;;;;;;5.37;3.57;;;;;;;3.06;53.20;101166.70;1432685;92;21525;-78
2024/01/12 10:02:55;;;;;;;5.17;2.83;;;;;;;3.40;51.14;101159.66;1429496;92;22244;-77
2024/01/12 10:05:23;;;;;;;5.97;3.53;;;;;;;3.59;51.71;101160.31;1423333;92;22353;-77
2024/01/12 10:07:49;;;;;;;5.60;3.43;;;;;;;4.14;51.67;101164.22;1425971;92;21708;-77
2024/01/12 10:10:15;;;;;;;12.13;6.37;;;;;;;4.01;52.63;101161.94;1422198;91;21517;-77
2024/01/12 10:12:41;;;;;;;9.23;6.07;;;;;;;4.46;51.54;101160.19;1428073;91;21413;-77
2024/01/12 10:15:09;;;;;;;12.20;5.63;;;;;;;4.48;50.75;101168.81;1417739;92;21638;-76
2024/01/12 10:17:36;;;;;;;13.90;6.60;;;;;;;4.70;52.16;101164.46;1434213;91;22301;-77
2024/01/12 10:20:05;;;;;;;9.07;4.30;;;;;;;3.74;49.62;101163.88;1425689;91;21624;-77
2024/01/12 10:22:32;;;;;;;7.77;3.77;;;;;;;2.92;52.10;101167.89;1429242;91;21737;-76
2024/01/12 10:25:04;;;;;;;6.03;4.00;;;;;;;2.69;52.12;101176.92;1422915;91;21509;-76
2024/01/12 10:27:31;;;;;;;12.40;6.30;;;;;;;2.76;52.62;101173.52;1424914;91;21435;-76
2024/01/12 10:29:57;;;;;;;9.57;4.37;;;;;;;2.71;52.60;101173.31;1424258;91;21649;-76
2024/01/12 10:32:25;;;;;;;5.63;3.57;;;;;;;2.46;52.92;101172.40;1426240;91;21751;-75
2024/01/12 10:34:53;;;;;;;9.60;4.20;;;;;;;2.22;54.49;101183.63;1430786;91;21480;-78
2024/01/12 10:37:21;;;;;;;6.30;3.07;;;;;;;1.83;55.01;101177.72;1429302;91;21594;-79
2024/01/12 10:39:49;;;;;;;6.27;3.40;;;;;;;1.63;55.00;101182.11;1425994;91;22136;-78
2024/01/12 10:42:17;;;;;;;11.00;5.47;;;;;;;1.18;55.45;101191.14;1424751;91;22344;-78
2024/01/12 10:44:46;;;;;;;9.03;5.50;;;;;;;1.10;56.06;101199.30;1426142;91;21479;-78
2024/01/12 10:47:18;;;;;;;8.63;4.80;;;;;;;1.00;56.40;101198.46;1430455;91;23167;-78
2024/01/12 10:50:01;;;;;;;6.93;3.70;;;;;;;1.12;56.99;101199.21;1425102;91;23119;-76
2024/01/12 10:52:38;;;;;;;5.83;3.30;;;;;;;0.95;55.91;101195.20;1415542;91;22296;-78
2024/01/12 10:55:10;;;;;;;6.40;3.67;;;;;;;0.94;56.52;101192.22;1418419;91;22392;-78
2024/01/12 10:57:37;;;;;;;9.17;3.60;;;;;;;0.90;56.23;101185.84;1431626;91;22422;-78
2024/01/12 11:00:05;;;;;;;7.37;3.10;;;;;;;1.35;56.40;101182.53;1424626;91;22231;-78
2024/01/12 11:02:32;;;;;;;7.67;3.47;;;;;;;1.38;53.86;101170.65;1423422;91;22346;-78
2024/01/12 11:05:00;;;;;;;5.43;3.13;;;;;;;1.38;53.86;101170.65;1427262;91;21554;-78
2024/01/12 11:07:27;;;;;;;5.93;3.40;;;;;;;1.82;54.53;101173.42;1419639;91;21517;-78
2024/01/12 11:13:41;;;;;;;7.03;4.23;;;;;;;2.18;52.55;101173.39;1414829;92;21636;-79
2024/01/12 11:16:08;;;;;;;5.77;3.40;;;;;;;1.95;52.18;101176.66;1414170;91;21702;-78
2024/01/12 11:18:36;;;;;;;7.30;4.03;;;;;;;1.16;53.17;101166.89;1444448;90;21627;-79